Have a Safe July 4th! 

Flight Track Log - Related Links

Times and Time Zones

All times are in EST time to prevent confusion due to time zone crossing. See the UAL582 flight status page for this flight to view local times or setup timezone preferences in your user account.

Time Position Orientation Groundspeed Altitude Reporting Facility
EST Latitude Longitude Course Direction KTS MPH feet Rate Location/Type
Sun 05:25:21 PM 43.6500 -79.6833 224° Southwest 170 196 2,700  Level Toronto Center
Sun 05:26:21 PM 43.6000 -79.7500 224° Southwest 230 265 5,200 2,150 Climbing Toronto Center
Sun 05:27:21 PM 43.6000 -79.8333 270° West 250 288 7,000 900 Climbing Toronto Center
Sun 05:28:21 PM 43.6167 -79.9333 283° West 250 288 7,000 1,050 Level Toronto Center
Sun 05:29:21 PM 43.6333 -80.0167 285° West 250 288 9,100 2,900 Climbing Toronto Center
Sun 05:30:21 PM 43.6500 -80.1167 283° West 230 265 12,800 3,050 Climbing Toronto Center
Sun 05:31:21 PM 43.6500 -80.2167 270° West 260 299 15,200 2,500 Climbing Toronto Center
Sun 05:32:21 PM 43.6333 -80.3167 257° West 280 322 17,800 2,550 Climbing Toronto Center
Sun 05:33:21 PM 43.6167 -80.4167 257° West 290 334 20,300 2,550 Climbing Toronto Center
Sun 05:34:21 PM 43.6000 -80.5333 259° West 290 334 22,900 2,100 Climbing Toronto Center
Sun 05:35:21 PM 43.6000 -80.6500 270° West 290 334 24,500 2,000 Climbing Toronto Center
Sun 05:36:21 PM 43.6000 -80.7333 270° West 300 345 26,900 2,200 Climbing Toronto Center
Sun 05:37:21 PM 43.6000 -80.8500 270° West 280 322 28,900 1,750 Climbing Toronto Center
Sun 05:38:21 PM 43.6000 -80.9667 270° West 290 334 30,400 1,450 Climbing Toronto Center
Sun 05:39:21 PM 43.5833 -81.0833 259° West 290 334 31,800 800 Climbing Toronto Center
Sun 05:40:21 PM 43.5667 -81.1667 255° West 290 334 32,000 100 Climbing Toronto Center
Sun 05:41:21 PM 43.5333 -81.2833 249° West 290 334 32,000  Level Toronto Center
Sun 05:42:21 PM 43.5167 -81.4000 259° West 290 334 32,000  Level Toronto Center
Sun 05:43:21 PM 43.5000 -81.5167 259° West 290 334 32,000  Level Toronto Center
Sun 05:44:21 PM 43.4833 -81.6167 257° West 290 334 32,000  Level Toronto Center
Sun 05:45:21 PM 43.4667 -81.7167 257° West 290 334 32,000  Level Toronto Center
Sun 05:46:21 PM 43.4333 -81.8167 245° Southwest 290 334 32,000  Level Toronto Center
Sun 05:47:21 PM 43.4000 -81.9333 249° West 290 334 32,000  Level Toronto Center
Sun 05:48:21 PM 43.3833 -82.0500 259° West 290 334 32,000  Level Toronto Center
Sun 05:49:21 PM 43.3667 -82.1333 255° West 290 334 32,000  Level Toronto Center
Sun 05:50:21 PM 43.3333 -82.2500 249° West 290 334 32,000  Level Toronto Center
Sun 05:51:21 PM 43.3167 -82.3667 259° West 290 334 32,000  Level Toronto Center
Sun 05:52:21 PM 43.3000 -82.4667 257° West 300 345 32,000  Level Toronto Center
Sun 05:53:21 PM 43.2833 -82.5667 257° West 290 334 32,000  Level Toronto Center
Sun 05:54:21 PM 43.2500 -82.6833 249° West 290 334 32,000  Level Toronto Center
Sun 05:55:21 PM 43.2167 -82.7833 245° Southwest 290 334 32,000  Level Toronto Center
Sun 05:56:21 PM 43.1833 -82.8833 245° Southwest 290 334 32,000  Level Toronto Center
Sun 05:57:21 PM 43.1667 -83.0000 259° West 300 345 32,000  Level Toronto Center
Sun 05:58:21 PM 43.1333 -83.1000 245° Southwest 300 345 32,000  Level Toronto Center
Sun 05:59:21 PM 43.1000 -83.2167 249° West 300 345 32,000  Level Toronto Center
Sun 06:00:21 PM 43.0667 -83.3000 241° Southwest 300 345 32,000  Level Toronto Center
Sun 06:00:51 PM 43.0758 -83.3631 281° West 296 341 32,000  Level Cleveland Center
Sun 06:01:53 PM 43.0469 -83.4675 249° West 295 339 32,000  Level Cleveland Center
Sun 06:02:55 PM 43.0164 -83.5703 248° West 295 339 32,000  Level Cleveland Center
Sun 06:03:57 PM 42.9811 -83.6953 249° West 295 339 32,000  Level Cleveland Center
Sun 06:05:00 PM 42.9608 -83.8011 255° West 294 338 32,000  Level Cleveland Center
Sun 06:06:02 PM 42.9508 -83.9117 263° West 294 338 32,000  Level Cleveland Center
Sun 06:07:04 PM 42.9397 -84.0219 262° West 295 339 32,000  Level Cleveland Center
Sun 06:08:06 PM 42.9294 -84.1325 263° West 295 339 32,000  Level Cleveland Center
Sun 06:09:08 PM 42.9164 -84.2647 262° West 295 339 32,000  Level Cleveland Center
Sun 06:10:10 PM 42.9042 -84.3775 262° West 297 342 32,000  Level Cleveland Center
Sun 06:11:07 PM 42.8931 -84.4875 262° West 297 342 32,000  Level Chicago Center
Sun 06:12:09 PM 42.8825 -84.5992 263° West 297 342 32,000  Level Chicago Center
Sun 06:13:11 PM 42.8706 -84.7111 262° West 298 343 32,000  Level Chicago Center
Sun 06:14:13 PM 42.8597 -84.8222 262° West 298 343 32,000  Level Chicago Center
Sun 06:15:15 PM 42.8472 -84.9344 261° West 300 345 32,000  Level Chicago Center
Sun 06:16:17 PM 42.8353 -85.0464 262° West 301 346 32,000 -145 Level Chicago Center
Sun 06:17:19 PM 42.8233 -85.1614 262° West 304 350 31,700 -677 Descending Chicago Center
Sun 06:18:21 PM 42.8075 -85.3075 262° West 325 374 30,600 -1,016 Descending Chicago Center
Sun 06:19:23 PM 42.7928 -85.4347 261° West 336 387 29,600 -1,024 Descending Chicago Center
Sun 06:20:24 PM 42.7758 -85.5586 259° West 335 386 28,500 -1,220 Descending Chicago Center
Sun 06:21:26 PM 42.7536 -85.6783 256° West 329 379 27,100 -1,403 Descending Chicago Center
Sun 06:22:28 PM 42.7317 -85.7989 256° West 326 375 25,600 -1,403 Descending Chicago Center
Sun 06:23:30 PM 42.7100 -85.9189 256° West 326 375 24,200 -1,306 Descending Chicago Center
Sun 06:24:32 PM 42.6881 -86.0406 256° West 328 377 22,900 -1,113 Descending Chicago Center
Sun 06:25:34 PM 42.6661 -86.1600 256° West 326 375 21,900 -1,403 Descending Chicago Center
Sun 06:26:36 PM 42.6406 -86.2989 256° West 319 367 20,000 -919 Descending Chicago Center
Sun 06:27:38 PM 42.6183 -86.4133 255° West 315 362 20,000  Level Chicago Center
Sun 06:28:40 PM 42.5964 -86.5294 256° West 316 364 20,000 -919 Level Chicago Center
Sun 06:29:42 PM 42.5742 -86.6464 256° West 319 367 18,100 -1,790 Descending Chicago Center
Sun 06:30:44 PM 42.5517 -86.7611 255° West 316 364 16,300 -1,902 Descending Chicago Center
Sun 06:31:45 PM 42.5208 -86.8708 249° West 314 361 14,200 -1,951 Descending Chicago Center
Sun 06:32:47 PM 42.4908 -86.9808 250° West 313 360 12,300 -1,984 Descending Chicago Center
Sun 06:33:49 PM 42.4553 -87.1083 249° West 302 348 10,100 -1,258 Descending Chicago Center
Sun 06:34:51 PM 42.4289 -87.2039 250° West 274 315 9,700 -532 Descending Chicago Center
Sun 06:35:53 PM 42.3775 -87.2636 221° Southwest 281 323 9,000 -726 Descending Chicago Center
Sun 06:36:55 PM 42.2844 -87.2650 181° South 301 346 8,200 -823 Descending Chicago Center
Sun 06:37:57 PM 42.2117 -87.2936 196° South 271 312 7,300 -581 Descending Chicago Center
Sun 06:38:59 PM 42.1431 -87.3553 214° Southwest 274 315 7,000 -484 Descending Chicago Center
Sun 06:40:01 PM 42.0789 -87.4119 213° Southwest 275 316 6,300 -484 Descending Chicago Center
Sun 06:41:03 PM 42.0233 -87.4803 222° Southwest 275 316 6,000 -242 Descending Chicago Center
Sun 06:42:05 PM 41.9883 -87.5767 244° Southwest 269 310 5,800 -683 Descending Chicago Center
Sun 06:43:06 PM 41.9828 -87.6681 265° West 248 285 4,600 -1,366 Descending Chicago Center
Sun 06:44:08 PM 41.9828 -87.7561 270° West 223 257 3,000 -1,306 Descending Chicago Center
Sun 06:45:10 PM 41.9828 -87.8181 270° West 166 191 1,900 -968 Descending Chicago Center
Sun 06:46:12 PM 41.9831 -87.8700 270° West 133 153 1,000 -532 Descending Chicago Center
Sun 06:47:14 PM 41.9817 -87.9108 267° West 127 146 800 -194 Descending Chicago Center

Login

Don't have an account? Register now (free) for customized features, flight alerts, and more!